Hamden, Ohio
Current Conditions -  °F | °C
As of 8:15 PM on Thursday 27 Nov 2014 (Local Time) from KUNI Reporting Station
Light Snow Light Snow  
Wind Chill: 23°   Ceiling: 2800
Heat Index: 30°   Visibility: 5mi
Dew Point: 26°   Wind: 8mph
Humidity: 84%   Direction: 260°W
Pressure: 30.31"   Gusts: NA
Location:  39.16°N, 82.53°W
Report Text: KUNI 280115Z AUTO 26007KT 5SM -SN SCT013 BKN028 OVC060 M01/M03 A3031 RMK AO2 T10091033
Loading
Personal Weather Stations






























Interactive Weather Map New forecast layout! Learn more

10-Day Weather Forecast

Advertisements
Track Severe Weather on mobile